createdAt,value
2019-01-15T00:02:58.400Z,-3.46
2019-01-15T00:13:00.209Z,-3.27
2019-01-15T00:23:02.117Z,-3.14
2019-01-15T00:33:03.823Z,-3.05
2019-01-15T00:43:05.832Z,-2.97
2019-01-15T00:53:07.570Z,-2.94
2019-01-15T01:03:09.344Z,-2.95
2019-01-15T01:13:11.149Z,-2.94
2019-01-15T01:23:12.651Z,-2.95
2019-01-15T01:33:14.351Z,-2.97
2019-01-15T01:43:16.160Z,-2.96
2019-01-15T01:53:19.126Z,-2.95
2019-01-15T02:03:20.742Z,-2.91
2019-01-15T02:13:22.532Z,-2.92
2019-01-15T02:23:24.106Z,-2.96
2019-01-15T02:33:26.629Z,-3.02
2019-01-15T02:43:28.438Z,-3.02
2019-01-15T02:53:33.417Z,-3.26
2019-01-15T03:03:34.918Z,-3.33
2019-01-15T03:13:36.720Z,-3.22
2019-01-15T03:23:38.222Z,-3.18
2019-01-15T03:33:40.857Z,-3.19
2019-01-15T03:43:42.658Z,-3.24
2019-01-15T03:53:44.268Z,-3.25
2019-01-15T04:03:45.857Z,-3.21
2019-01-15T04:13:47.781Z,-3.15
2019-01-15T04:23:49.369Z,-3.14
2019-01-15T04:33:50.871Z,-3.09
2019-01-15T04:43:52.577Z,-3.03
2019-01-15T04:53:54.280Z,-3.05
2019-01-15T05:03:55.774Z,-3.03
2019-01-15T05:13:57.759Z,-2.97
2019-01-15T05:23:59.264Z,-3.02
2019-01-15T05:34:00.811Z,-2.97
2019-01-15T05:44:03.477Z,-2.81
2019-01-15T05:54:05.937Z,-2.68
2019-01-15T06:04:07.944Z,-2.62
2019-01-15T06:14:09.649Z,-2.64
2019-01-15T06:24:11.154Z,-2.60
2019-01-15T06:34:12.649Z,-2.61
2019-01-15T06:44:14.355Z,-2.80
2019-01-15T06:54:19.438Z,-2.67
2019-01-15T07:04:20.932Z,-2.74
2019-01-15T07:14:22.757Z,-2.87
2019-01-15T07:24:25.277Z,-2.83
2019-01-15T07:34:26.767Z,-2.69
2019-01-15T07:44:28.471Z,-2.47
2019-01-15T07:54:33.861Z,-2.50
2019-01-15T08:04:35.357Z,-2.30
2019-01-15T08:14:36.998Z,-2.25
2019-01-15T08:24:38.573Z,-2.48
2019-01-15T08:34:40.068Z,-2.53
2019-01-15T08:44:42.278Z,-2.23
2019-01-15T08:54:47.073Z,-1.63
2019-01-15T09:04:48.569Z,-1.02
2019-01-15T09:14:50.257Z,-1.36
2019-01-15T09:24:51.767Z,-1.30
2019-01-15T09:34:53.362Z,-1.21
2019-01-15T09:44:55.489Z,-0.94
2019-01-15T09:55:00.558Z,-0.90
2019-01-15T10:05:04.245Z,-0.95
2019-01-15T10:15:10.909Z,-0.92
2019-01-15T10:25:15.576Z,-0.92
2019-01-15T10:35:25.642Z,-0.94
2019-01-15T10:45:27.414Z,-0.84
2019-01-15T10:55:30.989Z,-0.81
2019-01-15T11:05:32.765Z,-0.92
2019-01-15T11:15:34.530Z,-1.10
2019-01-15T11:25:36.174Z,-1.24
2019-01-15T11:35:37.877Z,-1.42
2019-01-15T11:45:39.685Z,-1.69
2019-01-15T11:55:41.386Z,-1.77
2019-01-15T12:05:47.806Z,-1.59
2019-01-15T12:16:00.299Z,-1.32
2019-01-15T12:26:06.878Z,-1.23
2019-01-15T12:36:16.157Z,-1.20
2019-01-15T12:46:18.282Z,-1.04
2019-01-15T12:56:21.948Z,-1.10
2019-01-15T13:24:23.840Z,-0.75
2019-01-15T13:34:44.049Z,-0.93
2019-01-15T13:44:45.545Z,-1.04
2019-01-15T13:54:47.040Z,-0.93
2019-01-15T14:05:13.942Z,-146.45
2019-01-15T14:15:17.891Z,-146.45
2019-01-15T14:25:40.693Z,-146.45
2019-01-15T14:50:55.711Z,-146.45
2019-01-15T15:01:15.849Z,-146.45
2019-01-15T16:56:49.577Z,-146.45
2019-01-15T17:06:56.808Z,-146.45
2019-01-15T18:05:20.990Z,-146.45
